sensor_id;sensor_type;location;lat;lon;timestamp;temperature;humidity
3281;DHT22;1652;51.318;6.202;2022-07-04T00:00:15;14.30;1.00
3281;DHT22;1652;51.318;6.202;2022-07-04T00:02:44;14.30;1.00
3281;DHT22;1652;51.318;6.202;2022-07-04T00:05:12;14.30;1.00
3281;DHT22;1652;51.318;6.202;2022-07-04T00:07:45;14.20;1.00
3281;DHT22;1652;51.318;6.202;2022-07-04T00:10:14;14.20;1.00
3281;DHT22;1652;51.318;6.202;2022-07-04T00:12:42;14.10;1.00
3281;DHT22;1652;51.318;6.202;2022-07-04T00:15:10;14.10;1.00
3281;DHT22;1652;51.318;6.202;2022-07-04T00:17:37;14.00;1.00
3281;DHT22;1652;51.318;6.202;2022-07-04T00:20:06;13.90;1.00
3281;DHT22;1652;51.318;6.202;2022-07-04T00:22:34;13.80;1.00
3281;DHT22;1652;51.318;6.202;2022-07-04T00:25:02;13.70;8.40
3281;DHT22;1652;51.318;6.202;2022-07-04T00:27:28;13.70;14.60
3281;DHT22;1652;51.318;6.202;2022-07-04T00:29:56;13.60;19.70
3281;DHT22;1652;51.318;6.202;2022-07-04T00:32:23;13.60;22.50
3281;DHT22;1652;51.318;6.202;2022-07-04T00:34:49;13.70;22.80
3281;DHT22;1652;51.318;6.202;2022-07-04T00:37:16;13.60;21.60
3281;DHT22;1652;51.318;6.202;2022-07-04T00:39:43;13.60;24.40
3281;DHT22;1652;51.318;6.202;2022-07-04T00:42:11;13.50;25.40
3281;DHT22;1652;51.318;6.202;2022-07-04T00:44:38;13.50;36.90
3281;DHT22;1652;51.318;6.202;2022-07-04T00:47:06;13.40;45.90
3281;DHT22;1652;51.318;6.202;2022-07-04T00:49:33;13.30;51.70
3281;DHT22;1652;51.318;6.202;2022-07-04T00:52:01;13.20;56.60
3281;DHT22;1652;51.318;6.202;2022-07-04T00:54:30;13.20;65.90
3281;DHT22;1652;51.318;6.202;2022-07-04T00:56:59;13.10;71.10
3281;DHT22;1652;51.318;6.202;2022-07-04T00:59:27;13.10;74.30
3281;DHT22;1652;51.318;6.202;2022-07-04T01:01:54;13.10;77.70
3281;DHT22;1652;51.318;6.202;2022-07-04T01:04:21;13.10;81.70
3281;DHT22;1652;51.318;6.202;2022-07-04T01:06:48;13.10;80.70
3281;DHT22;1652;51.318;6.202;2022-07-04T01:09:16;13.10;83.00
3281;DHT22;1652;51.318;6.202;2022-07-04T01:11:43;13.10;83.40
3281;DHT22;1652;51.318;6.202;2022-07-04T01:14:10;13.00;85.40
3281;DHT22;1652;51.318;6.202;2022-07-04T01:16:37;13.00;84.30
3281;DHT22;1652;51.318;6.202;2022-07-04T01:19:04;13.00;86.30
3281;DHT22;1652;51.318;6.202;2022-07-04T01:21:32;13.00;90.90
3281;DHT22;1652;51.318;6.202;2022-07-04T01:24:00;12.90;90.90
3281;DHT22;1652;51.318;6.202;2022-07-04T01:26:28;12.90;90.50
3281;DHT22;1652;51.318;6.202;2022-07-04T01:28:55;12.80;91.20
3281;DHT22;1652;51.318;6.202;2022-07-04T01:31:22;12.80;94.60
3281;DHT22;1652;51.318;6.202;2022-07-04T01:33:49;12.80;96.90
3281;DHT22;1652;51.318;6.202;2022-07-04T01:36:16;12.80;98.60
3281;DHT22;1652;51.318;6.202;2022-07-04T01:38:43;12.80;99.90
3281;DHT22;1652;51.318;6.202;2022-07-04T01:41:10;12.80;99.90
3281;DHT22;1652;51.318;6.202;2022-07-04T01:43:37;12.80;99.90
3281;DHT22;1652;51.318;6.202;2022-07-04T01:46:04;12.90;99.90
3281;DHT22;1652;51.318;6.202;2022-07-04T01:48:31;12.90;99.90
3281;DHT22;1652;51.318;6.202;2022-07-04T01:50:58;12.90;99.90
3281;DHT22;1652;51.318;6.202;2022-07-04T01:53:25;12.90;99.90
3281;DHT22;1652;51.318;6.202;2022-07-04T01:55:52;12.90;99.90
3281;DHT22;1652;51.318;6.202;2022-07-04T01:58:18;12.90;99.90
3281;DHT22;1652;51.318;6.202;2022-07-04T02:00:45;12.90;99.50
3281;DHT22;1652;51.318;6.202;2022-07-04T02:03:31;12.70;99.40
3281;DHT22;1652;51.318;6.202;2022-07-04T02:05:58;12.60;99.10
3281;DHT22;1652;51.318;6.202;2022-07-04T02:08:25;12.50;99.90
3281;DHT22;1652;51.318;6.202;2022-07-04T02:11:11;12.50;99.90
3281;DHT22;1652;51.318;6.202;2022-07-04T02:13:38;12.40;99.90
3281;DHT22;1652;51.318;6.202;2022-07-04T02:16:05;12.40;99.90
3281;DHT22;1652;51.318;6.202;2022-07-04T02:18:32;12.30;99.90
3281;DHT22;1652;51.318;6.202;2022-07-04T02:20:59;12.20;99.90
3281;DHT22;1652;51.318;6.202;2022-07-04T02:23:26;12.10;99.90
3281;DHT22;1652;51.318;6.202;2022-07-04T02:25:53;12.10;99.90
3281;DHT22;1652;51.318;6.202;2022-07-04T02:28:20;12.10;99.90
3281;DHT22;1652;51.318;6.202;2022-07-04T02:30:47;12.10;99.90
3281;DHT22;1652;51.318;6.202;2022-07-04T02:33:13;12.10;99.90
3281;DHT22;1652;51.318;6.202;2022-07-04T02:35:40;12.10;99.90
3281;DHT22;1652;51.318;6.202;2022-07-04T02:38:07;12.20;99.90
3281;DHT22;1652;51.318;6.202;2022-07-04T02:40:34;12.30;99.90
3281;DHT22;1652;51.318;6.202;2022-07-04T02:43:01;12.30;99.90
3281;DHT22;1652;51.318;6.202;2022-07-04T02:45:28;12.30;99.90
3281;DHT22;1652;51.318;6.202;2022-07-04T02:47:55;12.30;99.90
3281;DHT22;1652;51.318;6.202;2022-07-04T02:50:22;12.40;99.90
3281;DHT22;1652;51.318;6.202;2022-07-04T02:52:48;12.30;99.90
3281;DHT22;1652;51.318;6.202;2022-07-04T02:55:15;12.20;99.90
3281;DHT22;1652;51.318;6.202;2022-07-04T02:57:42;12.20;99.90
3281;DHT22;1652;51.318;6.202;2022-07-04T03:00:09;12.30;99.90
3281;DHT22;1652;51.318;6.202;2022-07-04T03:02:36;12.20;99.90
3281;DHT22;1652;51.318;6.202;2022-07-04T03:05:04;12.20;99.90
3281;DHT22;1652;51.318;6.202;2022-07-04T03:07:31;12.10;99.90
3281;DHT22;1652;51.318;6.202;2022-07-04T03:09:58;12.20;99.90
3281;DHT22;1652;51.318;6.202;2022-07-04T03:12:24;12.20;99.90
3281;DHT22;1652;51.318;6.202;2022-07-04T03:14:51;12.10;99.90
3281;DHT22;1652;51.318;6.202;2022-07-04T03:17:20;12.10;99.90
3281;DHT22;1652;51.318;6.202;2022-07-04T03:19:47;12.10;99.90
3281;DHT22;1652;51.318;6.202;2022-07-04T03:22:14;12.10;99.90
3281;DHT22;1652;51.318;6.202;2022-07-04T03:24:41;12.10;99.90
3281;DHT22;1652;51.318;6.202;2022-07-04T03:27:08;12.00;99.90
3281;DHT22;1652;51.318;6.202;2022-07-04T03:29:35;12.00;99.90
3281;DHT22;1652;51.318;6.202;2022-07-04T03:32:04;12.00;99.90
3281;DHT22;1652;51.318;6.202;2022-07-04T03:34:31;12.00;99.90
3281;DHT22;1652;51.318;6.202;2022-07-04T03:36:58;12.10;99.90
3281;DHT22;1652;51.318;6.202;2022-07-04T03:39:25;12.10;99.90
3281;DHT22;1652;51.318;6.202;2022-07-04T03:41:52;12.00;99.90
3281;DHT22;1652;51.318;6.202;2022-07-04T03:44:19;12.10;99.90
3281;DHT22;1652;51.318;6.202;2022-07-04T03:46:46;12.10;99.90
3281;DHT22;1652;51.318;6.202;2022-07-04T03:49:13;12.20;99.90
3281;DHT22;1652;51.318;6.202;2022-07-04T03:51:40;12.10;99.90
3281;DHT22;1652;51.318;6.202;2022-07-04T03:54:07;12.20;99.90
3281;DHT22;1652;51.318;6.202;2022-07-04T03:56:34;12.30;99.90
3281;DHT22;1652;51.318;6.202;2022-07-04T03:59:00;12.40;99.90
3281;DHT22;1652;51.318;6.202;2022-07-04T04:01:27;12.50;99.90
3281;DHT22;1652;51.318;6.202;2022-07-04T04:03:56;12.60;99.90
3281;DHT22;1652;51.318;6.202;2022-07-04T04:06:41;12.90;99.90
3281;DHT22;1652;51.318;6.202;2022-07-04T04:09:08;13.60;99.90
3281;DHT22;1652;51.318;6.202;2022-07-04T04:11:40;14.20;64.30
3281;DHT22;1652;51.318;6.202;2022-07-04T04:14:06;14.90;1.00
3281;DHT22;1652;51.318;6.202;2022-07-04T04:16:34;15.50;1.00
3281;DHT22;1652;51.318;6.202;2022-07-04T04:19:01;16.20;99.90
3281;DHT22;1652;51.318;6.202;2022-07-04T04:21:28;16.60;99.90
3281;DHT22;1652;51.318;6.202;2022-07-04T04:23:55;17.10;1.00
3281;DHT22;1652;51.318;6.202;2022-07-04T04:26:21;17.50;99.90
3281;DHT22;1652;51.318;6.202;2022-07-04T04:28:48;18.00;1.00
3281;DHT22;1652;51.318;6.202;2022-07-04T04:31:15;18.30;99.90
3281;DHT22;1652;51.318;6.202;2022-07-04T04:33:44;18.70;99.90
3281;DHT22;1652;51.318;6.202;2022-07-04T04:36:10;19.00;99.90
3281;DHT22;1652;51.318;6.202;2022-07-04T04:38:37;19.00;99.90
3281;DHT22;1652;51.318;6.202;2022-07-04T04:41:04;19.40;1.00
3281;DHT22;1652;51.318;6.202;2022-07-04T04:43:31;19.90;99.90
3281;DHT22;1652;51.318;6.202;2022-07-04T04:45:58;19.90;99.90
3281;DHT22;1652;51.318;6.202;2022-07-04T04:48:25;20.20;1.00
3281;DHT22;1652;51.318;6.202;2022-07-04T04:50:52;20.70;99.90
3281;DHT22;1652;51.318;6.202;2022-07-04T04:53:19;21.00;1.00
3281;DHT22;1652;51.318;6.202;2022-07-04T04:55:49;21.20;1.00
3281;DHT22;1652;51.318;6.202;2022-07-04T04:58:16;21.60;99.90
3281;DHT22;1652;51.318;6.202;2022-07-04T05:00:43;21.80;1.00
3281;DHT22;1652;51.318;6.202;2022-07-04T05:03:29;22.20;1.00
3281;DHT22;1652;51.318;6.202;2022-07-04T05:05:57;22.70;99.90
3281;DHT22;1652;51.318;6.202;2022-07-04T05:08:23;22.90;99.90
3281;DHT22;1652;51.318;6.202;2022-07-04T05:10:52;23.30;99.90
3281;DHT22;1652;51.318;6.202;2022-07-04T05:13:19;23.60;99.90
3281;DHT22;1652;51.318;6.202;2022-07-04T05:15:46;24.00;1.00
3281;DHT22;1652;51.318;6.202;2022-07-04T05:18:13;24.40;1.00
3281;DHT22;1652;51.318;6.202;2022-07-04T05:20:40;24.70;1.00
3281;DHT22;1652;51.318;6.202;2022-07-04T05:23:07;24.80;1.00
3281;DHT22;1652;51.318;6.202;2022-07-04T05:25:34;25.20;1.00
3281;DHT22;1652;51.318;6.202;2022-07-04T05:28:01;25.50;99.90
3281;DHT22;1652;51.318;6.202;2022-07-04T05:30:28;25.90;99.90
3281;DHT22;1652;51.318;6.202;2022-07-04T05:32:55;25.90;99.90
3281;DHT22;1652;51.318;6.202;2022-07-04T05:35:22;26.10;99.90
3281;DHT22;1652;51.318;6.202;2022-07-04T05:37:48;26.50;99.90
3281;DHT22;1652;51.318;6.202;2022-07-04T05:40:15;26.50;99.90
3281;DHT22;1652;51.318;6.202;2022-07-04T05:42:42;26.70;99.90
3281;DHT22;1652;51.318;6.202;2022-07-04T05:45:09;26.80;99.90
3281;DHT22;1652;51.318;6.202;2022-07-04T05:47:36;27.20;99.90
3281;DHT22;1652;51.318;6.202;2022-07-04T05:50:04;27.40;99.90
3281;DHT22;1652;51.318;6.202;2022-07-04T05:52:31;27.40;99.90
3281;DHT22;1652;51.318;6.202;2022-07-04T05:54:57;27.40;99.90
3281;DHT22;1652;51.318;6.202;2022-07-04T05:57:24;27.60;99.90
3281;DHT22;1652;51.318;6.202;2022-07-04T05:59:51;27.50;99.90
3281;DHT22;1652;51.318;6.202;2022-07-04T06:02:18;28.00;73.80
3281;DHT22;1652;51.318;6.202;2022-07-04T06:04:45;27.90;57.20
3281;DHT22;1652;51.318;6.202;2022-07-04T06:07:12;27.90;42.60
3281;DHT22;1652;51.318;6.202;2022-07-04T06:09:39;27.80;50.00
3281;DHT22;1652;51.318;6.202;2022-07-04T06:12:06;28.20;24.30
3281;DHT22;1652;51.318;6.202;2022-07-04T06:14:33;28.30;13.60
3281;DHT22;1652;51.318;6.202;2022-07-04T06:17:00;28.40;1.00
3281;DHT22;1652;51.318;6.202;2022-07-04T06:19:27;28.40;1.00
3281;DHT22;1652;51.318;6.202;2022-07-04T06:21:54;28.60;1.00
3281;DHT22;1652;51.318;6.202;2022-07-04T06:24:21;28.70;1.00
3281;DHT22;1652;51.318;6.202;2022-07-04T06:26:47;29.40;1.00
3281;DHT22;1652;51.318;6.202;2022-07-04T06:29:14;29.30;1.00
3281;DHT22;1652;51.318;6.202;2022-07-04T06:31:41;29.40;1.00
3281;DHT22;1652;51.318;6.202;2022-07-04T06:34:08;29.50;1.00
3281;DHT22;1652;51.318;6.202;2022-07-04T06:36:54;29.50;1.00
3281;DHT22;1652;51.318;6.202;2022-07-04T06:39:21;29.80;1.00
3281;DHT22;1652;51.318;6.202;2022-07-04T06:41:48;29.90;1.00
3281;DHT22;1652;51.318;6.202;2022-07-04T06:44:15;30.40;1.00
3281;DHT22;1652;51.318;6.202;2022-07-04T06:46:41;30.40;1.00
3281;DHT22;1652;51.318;6.202;2022-07-04T06:49:10;30.40;1.00
3281;DHT22;1652;51.318;6.202;2022-07-04T06:51:37;30.40;1.00
3281;DHT22;1652;51.318;6.202;2022-07-04T06:54:05;30.60;1.00
3281;DHT22;1652;51.318;6.202;2022-07-04T06:56:32;30.70;1.00
3281;DHT22;1652;51.318;6.202;2022-07-04T06:58:59;30.70;1.00
3281;DHT22;1652;51.318;6.202;2022-07-04T07:01:26;30.90;1.00
3281;DHT22;1652;51.318;6.202;2022-07-04T07:03:53;31.10;1.00
3281;DHT22;1652;51.318;6.202;2022-07-04T07:06:20;31.10;1.00
3281;DHT22;1652;51.318;6.202;2022-07-04T07:08:49;31.20;1.00
3281;DHT22;1652;51.318;6.202;2022-07-04T07:11:16;31.00;1.00
3281;DHT22;1652;51.318;6.202;2022-07-04T07:13:47;30.90;1.00
3281;DHT22;1652;51.318;6.202;2022-07-04T07:16:14;31.20;1.00
3281;DHT22;1652;51.318;6.202;2022-07-04T07:18:41;31.50;1.00
3281;DHT22;1652;51.318;6.202;2022-07-04T07:21:08;31.90;1.00
3281;DHT22;1652;51.318;6.202;2022-07-04T07:23:39;32.00;1.00
3281;DHT22;1652;51.318;6.202;2022-07-04T07:26:07;32.10;1.00
3281;DHT22;1652;51.318;6.202;2022-07-04T07:28:34;32.00;1.00
3281;DHT22;1652;51.318;6.202;2022-07-04T07:31:02;32.10;1.00
3281;DHT22;1652;51.318;6.202;2022-07-04T07:33:29;32.30;1.00
3281;DHT22;1652;51.318;6.202;2022-07-04T07:35:56;32.00;1.00
3281;DHT22;1652;51.318;6.202;2022-07-04T07:38:23;32.10;1.00
3281;DHT22;1652;51.318;6.202;2022-07-04T07:40:50;32.10;1.00
3281;DHT22;1652;51.318;6.202;2022-07-04T07:43:18;32.30;1.00
3281;DHT22;1652;51.318;6.202;2022-07-04T07:45:45;32.40;1.00
3281;DHT22;1652;51.318;6.202;2022-07-04T07:48:11;32.30;1.00
3281;DHT22;1652;51.318;6.202;2022-07-04T07:50:38;32.10;1.00
3281;DHT22;1652;51.318;6.202;2022-07-04T07:53:05;31.90;1.00
3281;DHT22;1652;51.318;6.202;2022-07-04T07:55:32;31.80;1.00
3281;DHT22;1652;51.318;6.202;2022-07-04T07:57:59;31.90;1.00
3281;DHT22;1652;51.318;6.202;2022-07-04T08:00:27;31.90;1.00
3281;DHT22;1652;51.318;6.202;2022-07-04T08:03:13;32.20;1.00
3281;DHT22;1652;51.318;6.202;2022-07-04T08:05:59;32.10;1.00
3281;DHT22;1652;51.318;6.202;2022-07-04T08:08:26;32.00;1.00
3281;DHT22;1652;51.318;6.202;2022-07-04T08:10:52;32.20;1.00
3281;DHT22;1652;51.318;6.202;2022-07-04T08:13:19;31.80;1.00
3281;DHT22;1652;51.318;6.202;2022-07-04T08:15:46;31.30;1.00
3281;DHT22;1652;51.318;6.202;2022-07-04T08:18:13;31.50;1.00
3281;DHT22;1652;51.318;6.202;2022-07-04T08:20:41;31.50;1.00
3281;DHT22;1652;51.318;6.202;2022-07-04T08:23:27;31.70;1.00
3281;DHT22;1652;51.318;6.202;2022-07-04T08:25:55;31.90;1.00
3281;DHT22;1652;51.318;6.202;2022-07-04T08:28:21;31.70;1.00
3281;DHT22;1652;51.318;6.202;2022-07-04T08:30:48;31.00;1.00
3281;DHT22;1652;51.318;6.202;2022-07-04T08:33:15;30.40;1.00
3281;DHT22;1652;51.318;6.202;2022-07-04T08:35:42;30.50;1.00
3281;DHT22;1652;51.318;6.202;2022-07-04T08:38:09;30.80;1.00
3281;DHT22;1652;51.318;6.202;2022-07-04T08:40:36;30.40;1.00
3281;DHT22;1652;51.318;6.202;2022-07-04T08:43:04;30.80;1.00
3281;DHT22;1652;51.318;6.202;2022-07-04T08:45:32;30.80;1.00
3281;DHT22;1652;51.318;6.202;2022-07-04T08:48:07;30.70;1.00
3281;DHT22;1652;51.318;6.202;2022-07-04T08:53:11;31.00;1.00
3281;DHT22;1652;51.318;6.202;2022-07-04T08:55:40;30.60;1.00
3281;DHT22;1652;51.318;6.202;2022-07-04T08:58:26;30.40;1.00
3281;DHT22;1652;51.318;6.202;2022-07-04T09:00:54;30.60;1.00
3281;DHT22;1652;51.318;6.202;2022-07-04T09:03:22;30.30;1.00
3281;DHT22;1652;51.318;6.202;2022-07-04T09:05:50;29.90;1.00
3281;DHT22;1652;51.318;6.202;2022-07-04T09:08:17;29.80;1.00
3281;DHT22;1652;51.318;6.202;2022-07-04T09:10:45;29.80;1.00
3281;DHT22;1652;51.318;6.202;2022-07-04T09:13:12;30.10;1.00
3281;DHT22;1652;51.318;6.202;2022-07-04T09:15:42;30.10;1.00
3281;DHT22;1652;51.318;6.202;2022-07-04T09:18:27;30.00;1.00
3281;DHT22;1652;51.318;6.202;2022-07-04T09:20:59;29.60;1.00
3281;DHT22;1652;51.318;6.202;2022-07-04T09:23:29;29.40;1.00
3281;DHT22;1652;51.318;6.202;2022-07-04T09:26:13;29.50;1.00
3281;DHT22;1652;51.318;6.202;2022-07-04T09:28:43;29.60;1.00
3281;DHT22;1652;51.318;6.202;2022-07-04T09:31:14;29.80;1.00
3281;DHT22;1652;51.318;6.202;2022-07-04T09:33:46;29.80;1.00
3281;DHT22;1652;51.318;6.202;2022-07-04T09:36:15;29.90;1.00
3281;DHT22;1652;51.318;6.202;2022-07-04T09:38:43;30.00;1.00
3281;DHT22;1652;51.318;6.202;2022-07-04T09:41:10;30.20;1.00
3281;DHT22;1652;51.318;6.202;2022-07-04T09:44:02;30.20;1.00
3281;DHT22;1652;51.318;6.202;2022-07-04T09:46:30;29.70;1.00
3281;DHT22;1652;51.318;6.202;2022-07-04T09:48:58;29.90;1.00
3281;DHT22;1652;51.318;6.202;2022-07-04T09:51:48;29.90;1.00
3281;DHT22;1652;51.318;6.202;2022-07-04T09:54:22;29.80;1.00
3281;DHT22;1652;51.318;6.202;2022-07-04T09:56:57;29.80;1.00
3281;DHT22;1652;51.318;6.202;2022-07-04T09:59:26;29.50;1.00
3281;DHT22;1652;51.318;6.202;2022-07-04T10:02:08;28.90;1.00
3281;DHT22;1652;51.318;6.202;2022-07-04T10:04:48;28.30;1.00
3281;DHT22;1652;51.318;6.202;2022-07-04T10:07:32;27.60;1.00
3281;DHT22;1652;51.318;6.202;2022-07-04T10:09:59;27.10;1.00
3281;DHT22;1652;51.318;6.202;2022-07-04T10:12:27;26.70;1.00
3281;DHT22;1652;51.318;6.202;2022-07-04T10:14:57;26.60;1.00
3281;DHT22;1652;51.318;6.202;2022-07-04T10:17:24;26.30;1.00
3281;DHT22;1652;51.318;6.202;2022-07-04T10:19:52;26.30;1.00
3281;DHT22;1652;51.318;6.202;2022-07-04T10:22:20;26.00;1.00
3281;DHT22;1652;51.318;6.202;2022-07-04T10:24:49;25.80;1.00
3281;DHT22;1652;51.318;6.202;2022-07-04T10:27:16;25.90;1.00
3281;DHT22;1652;51.318;6.202;2022-07-04T10:29:43;25.90;1.00
3281;DHT22;1652;51.318;6.202;2022-07-04T10:32:11;25.80;1.00
3281;DHT22;1652;51.318;6.202;2022-07-04T10:34:40;25.60;1.00
3281;DHT22;1652;51.318;6.202;2022-07-04T10:37:07;25.10;1.00
3281;DHT22;1652;51.318;6.202;2022-07-04T10:39:34;24.90;1.00
3281;DHT22;1652;51.318;6.202;2022-07-04T10:42:01;24.90;1.00
3281;DHT22;1652;51.318;6.202;2022-07-04T10:44:29;25.30;1.00
3281;DHT22;1652;51.318;6.202;2022-07-04T10:47:04;25.40;1.00
3281;DHT22;1652;51.318;6.202;2022-07-04T10:49:34;25.50;7.80
3281;DHT22;1652;51.318;6.202;2022-07-04T10:52:12;25.70;1.00
3281;DHT22;1652;51.318;6.202;2022-07-04T10:54:41;25.60;1.00
3281;DHT22;1652;51.318;6.202;2022-07-04T11:02:31;25.70;1.00
3281;DHT22;1652;51.318;6.202;2022-07-04T11:05:12;25.80;1.00
3281;DHT22;1652;51.318;6.202;2022-07-04T11:18:11;26.00;1.00
3281;DHT22;1652;51.318;6.202;2022-07-04T11:20:43;25.90;1.00
3281;DHT22;1652;51.318;6.202;2022-07-04T11:23:12;25.70;1.00
3281;DHT22;1652;51.318;6.202;2022-07-04T11:25:42;25.70;1.00
3281;DHT22;1652;51.318;6.202;2022-07-04T11:28:26;25.70;1.00
3281;DHT22;1652;51.318;6.202;2022-07-04T11:31:11;25.80;1.00
3281;DHT22;1652;51.318;6.202;2022-07-04T11:33:39;26.00;1.00
3281;DHT22;1652;51.318;6.202;2022-07-04T11:36:14;26.00;1.00
3281;DHT22;1652;51.318;6.202;2022-07-04T11:38:59;26.10;1.00
3281;DHT22;1652;51.318;6.202;2022-07-04T11:44:31;26.80;1.00
3281;DHT22;1652;51.318;6.202;2022-07-04T11:47:24;27.00;1.00
3281;DHT22;1652;51.318;6.202;2022-07-04T11:49:56;26.90;1.00
3281;DHT22;1652;51.318;6.202;2022-07-04T11:52:37;26.70;1.00
3281;DHT22;1652;51.318;6.202;2022-07-04T11:55:25;26.50;1.00
3281;DHT22;1652;51.318;6.202;2022-07-04T11:57:52;26.30;1.00
3281;DHT22;1652;51.318;6.202;2022-07-04T12:00:22;26.30;1.00
3281;DHT22;1652;51.318;6.202;2022-07-04T12:02:51;26.40;1.00
3281;DHT22;1652;51.318;6.202;2022-07-04T12:05:19;26.20;1.00
3281;DHT22;1652;51.318;6.202;2022-07-04T12:07:48;26.00;1.00
3281;DHT22;1652;51.318;6.202;2022-07-04T12:10:36;25.70;1.00
3281;DHT22;1652;51.318;6.202;2022-07-04T12:13:05;25.60;1.00
3281;DHT22;1652;51.318;6.202;2022-07-04T12:15:45;25.50;1.00
3281;DHT22;1652;51.318;6.202;2022-07-04T12:18:30;25.50;1.00
3281;DHT22;1652;51.318;6.202;2022-07-04T12:21:14;25.70;1.00
3281;DHT22;1652;51.318;6.202;2022-07-04T12:23:55;26.00;1.00
3281;DHT22;1652;51.318;6.202;2022-07-04T12:26:47;26.30;1.00
3281;DHT22;1652;51.318;6.202;2022-07-04T12:29:22;26.20;1.00
3281;DHT22;1652;51.318;6.202;2022-07-04T12:31:57;26.20;1.00
3281;DHT22;1652;51.318;6.202;2022-07-04T12:34:24;25.90;1.00
3281;DHT22;1652;51.318;6.202;2022-07-04T12:36:51;25.90;1.00
3281;DHT22;1652;51.318;6.202;2022-07-04T12:39:33;26.10;1.00
3281;DHT22;1652;51.318;6.202;2022-07-04T12:42:16;26.10;1.00
3281;DHT22;1652;51.318;6.202;2022-07-04T12:44:44;25.90;1.00
3281;DHT22;1652;51.318;6.202;2022-07-04T12:47:12;25.90;1.00
3281;DHT22;1652;51.318;6.202;2022-07-04T12:49:47;25.90;1.00
3281;DHT22;1652;51.318;6.202;2022-07-04T12:52:16;26.10;1.00
3281;DHT22;1652;51.318;6.202;2022-07-04T12:54:44;26.20;1.00
3281;DHT22;1652;51.318;6.202;2022-07-04T12:57:15;26.20;1.00
3281;DHT22;1652;51.318;6.202;2022-07-04T12:59:42;26.20;1.00
3281;DHT22;1652;51.318;6.202;2022-07-04T13:02:10;26.00;1.00
3281;DHT22;1652;51.318;6.202;2022-07-04T13:04:38;25.90;1.00
3281;DHT22;1652;51.318;6.202;2022-07-04T13:07:13;25.90;1.00
3281;DHT22;1652;51.318;6.202;2022-07-04T13:09:42;25.80;1.00
3281;DHT22;1652;51.318;6.202;2022-07-04T13:12:10;25.90;1.00
3281;DHT22;1652;51.318;6.202;2022-07-04T13:14:56;25.90;1.00
3281;DHT22;1652;51.318;6.202;2022-07-04T13:17:26;25.90;1.00
3281;DHT22;1652;51.318;6.202;2022-07-04T13:19:53;25.80;1.00
3281;DHT22;1652;51.318;6.202;2022-07-04T13:22:20;25.50;1.00
3281;DHT22;1652;51.318;6.202;2022-07-04T13:24:49;25.40;1.00
3281;DHT22;1652;51.318;6.202;2022-07-04T13:27:17;25.40;1.00
3281;DHT22;1652;51.318;6.202;2022-07-04T13:29:44;25.60;1.00
3281;DHT22;1652;51.318;6.202;2022-07-04T13:32:11;25.90;1.00
3281;DHT22;1652;51.318;6.202;2022-07-04T13:34:38;25.90;1.00
3281;DHT22;1652;51.318;6.202;2022-07-04T13:37:06;26.10;1.00
3281;DHT22;1652;51.318;6.202;2022-07-04T13:39:33;26.20;1.00
3281;DHT22;1652;51.318;6.202;2022-07-04T13:42:15;26.40;1.00
3281;DHT22;1652;51.318;6.202;2022-07-04T13:45:02;26.50;1.00
3281;DHT22;1652;51.318;6.202;2022-07-04T13:47:30;26.60;1.00
3281;DHT22;1652;51.318;6.202;2022-07-04T13:49:57;26.80;1.00
3281;DHT22;1652;51.318;6.202;2022-07-04T13:52:25;26.80;1.00
3281;DHT22;1652;51.318;6.202;2022-07-04T13:54:52;26.80;1.00
3281;DHT22;1652;51.318;6.202;2022-07-04T13:57:21;26.70;1.00
3281;DHT22;1652;51.318;6.202;2022-07-04T13:59:48;26.60;1.00
3281;DHT22;1652;51.318;6.202;2022-07-04T14:02:15;26.50;1.00
3281;DHT22;1652;51.318;6.202;2022-07-04T14:04:42;26.30;1.00
3281;DHT22;1652;51.318;6.202;2022-07-04T14:07:09;26.00;1.00
3281;DHT22;1652;51.318;6.202;2022-07-04T14:09:44;25.70;1.00
3281;DHT22;1652;51.318;6.202;2022-07-04T14:12:12;25.70;1.00
3281;DHT22;1652;51.318;6.202;2022-07-04T14:14:39;25.70;1.00
3281;DHT22;1652;51.318;6.202;2022-07-04T14:17:06;25.50;1.00
3281;DHT22;1652;51.318;6.202;2022-07-04T14:19:53;25.50;1.00
3281;DHT22;1652;51.318;6.202;2022-07-04T14:22:20;25.50;1.00
3281;DHT22;1652;51.318;6.202;2022-07-04T14:24:47;25.50;1.00
3281;DHT22;1652;51.318;6.202;2022-07-04T14:27:14;25.70;1.00
3281;DHT22;1652;51.318;6.202;2022-07-04T14:29:41;25.80;1.00
3281;DHT22;1652;51.318;6.202;2022-07-04T14:32:09;25.80;1.00
3281;DHT22;1652;51.318;6.202;2022-07-04T14:34:36;25.90;1.00
3281;DHT22;1652;51.318;6.202;2022-07-04T14:37:03;26.10;1.00
3281;DHT22;1652;51.318;6.202;2022-07-04T14:39:30;25.90;1.00
3281;DHT22;1652;51.318;6.202;2022-07-04T14:41:57;25.90;22.10
3281;DHT22;1652;51.318;6.202;2022-07-04T14:44:24;25.70;1.00
3281;DHT22;1652;51.318;6.202;2022-07-04T14:46:51;25.40;1.00
3281;DHT22;1652;51.318;6.202;2022-07-04T14:49:19;25.20;12.40
3281;DHT22;1652;51.318;6.202;2022-07-04T14:51:46;25.20;57.80
3281;DHT22;1652;51.318;6.202;2022-07-04T14:54:13;25.20;96.20
3281;DHT22;1652;51.318;6.202;2022-07-04T14:56:40;25.10;23.40
3281;DHT22;1652;51.318;6.202;2022-07-04T14:59:07;25.00;7.10
3281;DHT22;1652;51.318;6.202;2022-07-04T15:01:34;24.70;1.00
3281;DHT22;1652;51.318;6.202;2022-07-04T15:04:01;24.70;5.90
3281;DHT22;1652;51.318;6.202;2022-07-04T15:06:28;24.90;1.00
3281;DHT22;1652;51.318;6.202;2022-07-04T15:08:55;24.90;1.00
3281;DHT22;1652;51.318;6.202;2022-07-04T15:11:22;24.90;14.40
3281;DHT22;1652;51.318;6.202;2022-07-04T15:13:49;24.80;99.90
3281;DHT22;1652;51.318;6.202;2022-07-04T15:16:16;24.50;58.30
3281;DHT22;1652;51.318;6.202;2022-07-04T15:18:49;24.50;99.90
3281;DHT22;1652;51.318;6.202;2022-07-04T15:21:15;24.50;99.90
3281;DHT22;1652;51.318;6.202;2022-07-04T15:24:01;24.60;48.50
3281;DHT22;1652;51.318;6.202;2022-07-04T15:26:48;24.80;3.90
3281;DHT22;1652;51.318;6.202;2022-07-04T15:29:18;25.00;1.00
3281;DHT22;1652;51.318;6.202;2022-07-04T15:31:46;25.10;1.00
3281;DHT22;1652;51.318;6.202;2022-07-04T15:34:31;25.20;1.00
3281;DHT22;1652;51.318;6.202;2022-07-04T15:36:58;25.20;1.00
3281;DHT22;1652;51.318;6.202;2022-07-04T15:39:25;25.20;1.00
3281;DHT22;1652;51.318;6.202;2022-07-04T15:41:52;25.30;1.00
3281;DHT22;1652;51.318;6.202;2022-07-04T15:44:19;25.30;1.00
3281;DHT22;1652;51.318;6.202;2022-07-04T15:46:48;25.20;1.00
3281;DHT22;1652;51.318;6.202;2022-07-04T15:49:34;25.20;1.00
3281;DHT22;1652;51.318;6.202;2022-07-04T15:52:00;25.20;1.00
3281;DHT22;1652;51.318;6.202;2022-07-04T15:54:28;25.20;1.00
3281;DHT22;1652;51.318;6.202;2022-07-04T15:56:55;25.20;1.00
3281;DHT22;1652;51.318;6.202;2022-07-04T15:59:22;25.20;1.00
3281;DHT22;1652;51.318;6.202;2022-07-04T16:01:49;25.20;1.00
3281;DHT22;1652;51.318;6.202;2022-07-04T16:04:16;25.20;1.00
3281;DHT22;1652;51.318;6.202;2022-07-04T16:06:43;25.10;1.00
3281;DHT22;1652;51.318;6.202;2022-07-04T16:09:10;24.90;1.00
3281;DHT22;1652;51.318;6.202;2022-07-04T16:11:38;24.90;1.00
3281;DHT22;1652;51.318;6.202;2022-07-04T16:14:07;24.80;10.10
3281;DHT22;1652;51.318;6.202;2022-07-04T16:16:34;24.80;17.30
3281;DHT22;1652;51.318;6.202;2022-07-04T16:19:01;24.90;2.70
3281;DHT22;1652;51.318;6.202;2022-07-04T16:21:36;24.90;1.00
3281;DHT22;1652;51.318;6.202;2022-07-04T16:24:03;24.90;1.00
3281;DHT22;1652;51.318;6.202;2022-07-04T16:26:30;24.90;1.00
3281;DHT22;1652;51.318;6.202;2022-07-04T16:28:57;24.80;1.00
3281;DHT22;1652;51.318;6.202;2022-07-04T16:31:24;24.70;7.90
3281;DHT22;1652;51.318;6.202;2022-07-04T16:33:51;24.60;22.10
3281;DHT22;1652;51.318;6.202;2022-07-04T16:36:17;24.40;77.10
3281;DHT22;1652;51.318;6.202;2022-07-04T16:38:44;24.40;47.60
3281;DHT22;1652;51.318;6.202;2022-07-04T16:41:11;24.40;71.30
3281;DHT22;1652;51.318;6.202;2022-07-04T16:43:38;24.40;67.50
3281;DHT22;1652;51.318;6.202;2022-07-04T16:46:05;24.20;94.60